sensor_id;sensor_type;location;lat;lon;timestamp;temperature;humidity
32977;DHT22;47687;50.842;4.450;2022-08-01T00:01:15;21.10;99.90
32977;DHT22;47687;50.842;4.450;2022-08-01T00:03:41;21.20;99.90
32977;DHT22;47687;50.842;4.450;2022-08-01T00:06:06;21.30;99.90
32977;DHT22;47687;50.842;4.450;2022-08-01T00:08:32;21.40;99.90
32977;DHT22;47687;50.842;4.450;2022-08-01T00:10:58;21.40;99.90
32977;DHT22;47687;50.842;4.450;2022-08-01T00:13:23;21.40;99.90
32977;DHT22;47687;50.842;4.450;2022-08-01T00:15:49;21.20;99.90
32977;DHT22;47687;50.842;4.450;2022-08-01T00:18:15;21.10;99.90
32977;DHT22;47687;50.842;4.450;2022-08-01T00:20:40;21.00;99.90
32977;DHT22;47687;50.842;4.450;2022-08-01T00:23:06;20.90;99.90
32977;DHT22;47687;50.842;4.450;2022-08-01T00:25:31;20.80;99.90
32977;DHT22;47687;50.842;4.450;2022-08-01T00:27:57;20.70;99.90
32977;DHT22;47687;50.842;4.450;2022-08-01T00:30:23;20.60;99.90
32977;DHT22;47687;50.842;4.450;2022-08-01T00:32:48;20.70;99.90
32977;DHT22;47687;50.842;4.450;2022-08-01T00:35:14;20.80;99.90
32977;DHT22;47687;50.842;4.450;2022-08-01T00:37:40;20.70;99.90
32977;DHT22;47687;50.842;4.450;2022-08-01T00:40:06;20.70;99.90
32977;DHT22;47687;50.842;4.450;2022-08-01T00:42:32;20.80;99.90
32977;DHT22;47687;50.842;4.450;2022-08-01T00:44:57;20.80;99.90
32977;DHT22;47687;50.842;4.450;2022-08-01T00:47:23;20.70;99.90
32977;DHT22;47687;50.842;4.450;2022-08-01T00:49:49;20.70;99.90
32977;DHT22;47687;50.842;4.450;2022-08-01T00:52:14;20.80;99.90
32977;DHT22;47687;50.842;4.450;2022-08-01T00:54:40;20.80;99.90
32977;DHT22;47687;50.842;4.450;2022-08-01T00:57:06;20.90;99.90
32977;DHT22;47687;50.842;4.450;2022-08-01T00:59:33;20.70;99.90
32977;DHT22;47687;50.842;4.450;2022-08-01T01:01:59;20.70;99.90
32977;DHT22;47687;50.842;4.450;2022-08-01T01:04:25;20.80;99.90
32977;DHT22;47687;50.842;4.450;2022-08-01T01:07:32;20.80;99.90
32977;DHT22;47687;50.842;4.450;2022-08-01T01:10:06;20.90;99.90
32977;DHT22;47687;50.842;4.450;2022-08-01T01:15:39;20.70;99.90
32977;DHT22;47687;50.842;4.450;2022-08-01T01:18:17;20.90;99.90
32977;DHT22;47687;50.842;4.450;2022-08-01T01:21:00;20.90;99.90
32977;DHT22;47687;50.842;4.450;2022-08-01T01:31:50;20.80;99.90
32977;DHT22;47687;50.842;4.450;2022-08-01T01:34:36;20.70;99.90
32977;DHT22;47687;50.842;4.450;2022-08-01T01:37:06;20.60;99.90
32977;DHT22;47687;50.842;4.450;2022-08-01T01:39:34;20.50;99.90
32977;DHT22;47687;50.842;4.450;2022-08-01T01:42:02;20.50;99.90
32977;DHT22;47687;50.842;4.450;2022-08-01T01:44:30;20.60;99.90
32977;DHT22;47687;50.842;4.450;2022-08-01T01:46:56;20.60;99.90
32977;DHT22;47687;50.842;4.450;2022-08-01T01:49:26;20.70;99.90
32977;DHT22;47687;50.842;4.450;2022-08-01T01:51:56;20.60;99.90
32977;DHT22;47687;50.842;4.450;2022-08-01T01:54:35;20.60;99.90
32977;DHT22;47687;50.842;4.450;2022-08-01T01:57:03;20.40;99.90
32977;DHT22;47687;50.842;4.450;2022-08-01T01:59:32;20.40;99.90
32977;DHT22;47687;50.842;4.450;2022-08-01T02:02:01;20.30;99.90
32977;DHT22;47687;50.842;4.450;2022-08-01T02:04:28;20.30;99.90
32977;DHT22;47687;50.842;4.450;2022-08-01T02:06:55;20.40;99.90
32977;DHT22;47687;50.842;4.450;2022-08-01T02:09:21;20.50;99.90
32977;DHT22;47687;50.842;4.450;2022-08-01T02:11:49;20.50;99.90
32977;DHT22;47687;50.842;4.450;2022-08-01T02:14:16;20.20;99.90
32977;DHT22;47687;50.842;4.450;2022-08-01T02:16:45;20.20;99.90
32977;DHT22;47687;50.842;4.450;2022-08-01T02:19:12;20.10;99.90
32977;DHT22;47687;50.842;4.450;2022-08-01T02:27:10;19.90;99.90
32977;DHT22;47687;50.842;4.450;2022-08-01T02:29:52;20.00;99.90
32977;DHT22;47687;50.842;4.450;2022-08-01T02:32:59;20.10;99.90
32977;DHT22;47687;50.842;4.450;2022-08-01T02:35:24;20.30;99.90
32977;DHT22;47687;50.842;4.450;2022-08-01T02:37:52;20.50;99.90
32977;DHT22;47687;50.842;4.450;2022-08-01T02:40:19;20.60;99.90
32977;DHT22;47687;50.842;4.450;2022-08-01T02:42:49;20.70;99.90
32977;DHT22;47687;50.842;4.450;2022-08-01T02:45:18;20.70;99.90
32977;DHT22;47687;50.842;4.450;2022-08-01T02:47:44;20.80;99.90
32977;DHT22;47687;50.842;4.450;2022-08-01T02:50:12;20.80;99.90
32977;DHT22;47687;50.842;4.450;2022-08-01T02:52:40;20.80;99.90
32977;DHT22;47687;50.842;4.450;2022-08-01T02:55:07;20.60;99.90
32977;DHT22;47687;50.842;4.450;2022-08-01T02:57:34;20.70;99.90
32977;DHT22;47687;50.842;4.450;2022-08-01T03:00:01;20.80;99.90
32977;DHT22;47687;50.842;4.450;2022-08-01T03:02:27;20.90;99.90
32977;DHT22;47687;50.842;4.450;2022-08-01T03:04:55;20.90;99.90
32977;DHT22;47687;50.842;4.450;2022-08-01T03:07:22;20.90;99.90
32977;DHT22;47687;50.842;4.450;2022-08-01T03:09:49;21.00;99.90
32977;DHT22;47687;50.842;4.450;2022-08-01T03:12:19;20.90;99.90
32977;DHT22;47687;50.842;4.450;2022-08-01T03:14:47;20.60;99.90
32977;DHT22;47687;50.842;4.450;2022-08-01T03:17:15;20.60;99.90
32977;DHT22;47687;50.842;4.450;2022-08-01T03:19:45;20.40;99.90
32977;DHT22;47687;50.842;4.450;2022-08-01T03:22:11;20.30;99.90
32977;DHT22;47687;50.842;4.450;2022-08-01T03:24:41;20.20;99.90
32977;DHT22;47687;50.842;4.450;2022-08-01T03:27:08;19.90;99.90
32977;DHT22;47687;50.842;4.450;2022-08-01T03:29:35;19.80;99.90
32977;DHT22;47687;50.842;4.450;2022-08-01T03:32:02;19.80;99.90
32977;DHT22;47687;50.842;4.450;2022-08-01T03:34:28;19.70;99.90
32977;DHT22;47687;50.842;4.450;2022-08-01T03:39:49;19.40;99.90
32977;DHT22;47687;50.842;4.450;2022-08-01T03:42:32;19.40;99.90
32977;DHT22;47687;50.842;4.450;2022-08-01T03:45:03;19.40;99.90
32977;DHT22;47687;50.842;4.450;2022-08-01T03:47:32;19.40;99.90
32977;DHT22;47687;50.842;4.450;2022-08-01T03:49:59;19.40;99.90
32977;DHT22;47687;50.842;4.450;2022-08-01T03:52:27;19.40;99.90
32977;DHT22;47687;50.842;4.450;2022-08-01T03:54:56;19.40;99.90
32977;DHT22;47687;50.842;4.450;2022-08-01T03:57:23;19.40;99.90
32977;DHT22;47687;50.842;4.450;2022-08-01T03:59:51;19.50;99.90
32977;DHT22;47687;50.842;4.450;2022-08-01T04:02:17;19.50;99.90
32977;DHT22;47687;50.842;4.450;2022-08-01T04:04:44;19.60;99.90
32977;DHT22;47687;50.842;4.450;2022-08-01T04:07:27;19.70;99.90
32977;DHT22;47687;50.842;4.450;2022-08-01T04:09:53;19.60;99.90
32977;DHT22;47687;50.842;4.450;2022-08-01T04:12:19;19.60;99.90
32977;DHT22;47687;50.842;4.450;2022-08-01T04:14:45;19.50;99.90
32977;DHT22;47687;50.842;4.450;2022-08-01T04:17:12;19.60;99.90
32977;DHT22;47687;50.842;4.450;2022-08-01T04:19:37;19.60;99.90
32977;DHT22;47687;50.842;4.450;2022-08-01T04:22:04;19.60;99.90
32977;DHT22;47687;50.842;4.450;2022-08-01T04:24:32;19.50;99.90
32977;DHT22;47687;50.842;4.450;2022-08-01T04:27:01;19.40;99.90
32977;DHT22;47687;50.842;4.450;2022-08-01T04:29:30;19.50;99.90
32977;DHT22;47687;50.842;4.450;2022-08-01T04:31:58;19.60;99.90
32977;DHT22;47687;50.842;4.450;2022-08-01T04:34:28;19.70;99.90
32977;DHT22;47687;50.842;4.450;2022-08-01T04:36:55;19.80;99.90
32977;DHT22;47687;50.842;4.450;2022-08-01T04:39:23;19.70;99.90
32977;DHT22;47687;50.842;4.450;2022-08-01T04:41:54;19.80;99.90
32977;DHT22;47687;50.842;4.450;2022-08-01T04:44:23;19.70;99.90
32977;DHT22;47687;50.842;4.450;2022-08-01T04:46:50;19.60;99.90
32977;DHT22;47687;50.842;4.450;2022-08-01T04:49:20;19.50;99.90
32977;DHT22;47687;50.842;4.450;2022-08-01T04:51:54;19.40;99.90
32977;DHT22;47687;50.842;4.450;2022-08-01T04:54:24;19.40;99.90
32977;DHT22;47687;50.842;4.450;2022-08-01T04:56:50;19.40;99.90
32977;DHT22;47687;50.842;4.450;2022-08-01T04:59:16;19.30;99.90
32977;DHT22;47687;50.842;4.450;2022-08-01T05:02:00;19.40;99.90
32977;DHT22;47687;50.842;4.450;2022-08-01T05:04:25;19.40;99.90
32977;DHT22;47687;50.842;4.450;2022-08-01T05:06:51;19.20;99.90
32977;DHT22;47687;50.842;4.450;2022-08-01T05:09:17;19.20;99.90
32977;DHT22;47687;50.842;4.450;2022-08-01T05:11:50;19.30;99.90
32977;DHT22;47687;50.842;4.450;2022-08-01T05:14:15;19.60;99.90
32977;DHT22;47687;50.842;4.450;2022-08-01T05:16:48;19.60;99.90
32977;DHT22;47687;50.842;4.450;2022-08-01T05:19:14;19.70;99.90
32977;DHT22;47687;50.842;4.450;2022-08-01T05:21:40;19.60;99.90
32977;DHT22;47687;50.842;4.450;2022-08-01T05:24:05;19.60;99.90
32977;DHT22;47687;50.842;4.450;2022-08-01T05:26:31;19.40;99.90
32977;DHT22;47687;50.842;4.450;2022-08-01T05:28:57;19.60;99.90
32977;DHT22;47687;50.842;4.450;2022-08-01T05:31:22;19.60;99.90
32977;DHT22;47687;50.842;4.450;2022-08-01T05:33:48;19.60;99.90
32977;DHT22;47687;50.842;4.450;2022-08-01T05:36:13;19.60;99.90
32977;DHT22;47687;50.842;4.450;2022-08-01T05:38:39;19.40;99.90
32977;DHT22;47687;50.842;4.450;2022-08-01T05:41:05;19.40;99.90
32977;DHT22;47687;50.842;4.450;2022-08-01T05:43:31;19.40;99.90
32977;DHT22;47687;50.842;4.450;2022-08-01T05:45:57;19.40;99.90
32977;DHT22;47687;50.842;4.450;2022-08-01T05:48:23;19.60;99.90
32977;DHT22;47687;50.842;4.450;2022-08-01T05:50:50;19.80;99.90
32977;DHT22;47687;50.842;4.450;2022-08-01T05:53:16;20.10;99.90
32977;DHT22;47687;50.842;4.450;2022-08-01T05:55:42;20.30;99.90
32977;DHT22;47687;50.842;4.450;2022-08-01T05:58:07;20.40;99.90
32977;DHT22;47687;50.842;4.450;2022-08-01T06:00:33;20.50;99.90
32977;DHT22;47687;50.842;4.450;2022-08-01T06:02:59;20.60;99.90
32977;DHT22;47687;50.842;4.450;2022-08-01T06:05:24;20.60;99.90
32977;DHT22;47687;50.842;4.450;2022-08-01T06:07:50;20.80;99.90
32977;DHT22;47687;50.842;4.450;2022-08-01T06:10:15;20.90;99.90
32977;DHT22;47687;50.842;4.450;2022-08-01T06:12:41;21.00;99.90
32977;DHT22;47687;50.842;4.450;2022-08-01T06:15:08;21.20;99.90
32977;DHT22;47687;50.842;4.450;2022-08-01T06:17:34;21.10;99.90
32977;DHT22;47687;50.842;4.450;2022-08-01T06:20:00;21.30;99.90
32977;DHT22;47687;50.842;4.450;2022-08-01T06:22:26;21.40;99.90
32977;DHT22;47687;50.842;4.450;2022-08-01T06:24:51;21.30;99.90
32977;DHT22;47687;50.842;4.450;2022-08-01T06:27:17;21.50;99.90
32977;DHT22;47687;50.842;4.450;2022-08-01T06:29:43;21.70;99.90
32977;DHT22;47687;50.842;4.450;2022-08-01T06:32:09;21.80;99.90
32977;DHT22;47687;50.842;4.450;2022-08-01T06:34:35;21.90;99.90
32977;DHT22;47687;50.842;4.450;2022-08-01T06:37:01;21.80;99.90
32977;DHT22;47687;50.842;4.450;2022-08-01T06:39:26;21.70;99.90
32977;DHT22;47687;50.842;4.450;2022-08-01T06:41:52;21.40;99.90
32977;DHT22;47687;50.842;4.450;2022-08-01T06:44:18;21.40;99.90
32977;DHT22;47687;50.842;4.450;2022-08-01T06:46:43;21.70;99.90
32977;DHT22;47687;50.842;4.450;2022-08-01T06:49:09;21.90;99.90
32977;DHT22;47687;50.842;4.450;2022-08-01T06:51:35;22.30;99.90
32977;DHT22;47687;50.842;4.450;2022-08-01T06:54:00;22.30;99.90
32977;DHT22;47687;50.842;4.450;2022-08-01T06:56:26;22.30;99.90
32977;DHT22;47687;50.842;4.450;2022-08-01T06:58:52;22.00;99.90
32977;DHT22;47687;50.842;4.450;2022-08-01T07:01:18;22.20;99.90
32977;DHT22;47687;50.842;4.450;2022-08-01T07:03:43;22.10;99.90
32977;DHT22;47687;50.842;4.450;2022-08-01T07:06:09;22.30;99.90
32977;DHT22;47687;50.842;4.450;2022-08-01T07:08:35;22.00;99.90
32977;DHT22;47687;50.842;4.450;2022-08-01T07:11:00;22.00;99.90
32977;DHT22;47687;50.842;4.450;2022-08-01T07:13:27;21.70;99.90
32977;DHT22;47687;50.842;4.450;2022-08-01T07:15:53;21.80;99.90
32977;DHT22;47687;50.842;4.450;2022-08-01T07:18:19;21.90;99.90
32977;DHT22;47687;50.842;4.450;2022-08-01T07:20:45;21.80;99.90
32977;DHT22;47687;50.842;4.450;2022-08-01T07:23:12;22.10;99.90
32977;DHT22;47687;50.842;4.450;2022-08-01T07:25:38;22.60;99.90
32977;DHT22;47687;50.842;4.450;2022-08-01T07:28:04;22.90;99.90
32977;DHT22;47687;50.842;4.450;2022-08-01T07:30:30;22.90;99.90
32977;DHT22;47687;50.842;4.450;2022-08-01T07:32:55;23.30;99.90
32977;DHT22;47687;50.842;4.450;2022-08-01T07:35:21;23.80;99.90
32977;DHT22;47687;50.842;4.450;2022-08-01T07:37:47;24.40;99.90
32977;DHT22;47687;50.842;4.450;2022-08-01T07:40:12;24.20;99.90
32977;DHT22;47687;50.842;4.450;2022-08-01T07:42:38;24.30;99.90
32977;DHT22;47687;50.842;4.450;2022-08-01T07:45:04;24.70;99.90
32977;DHT22;47687;50.842;4.450;2022-08-01T07:47:30;24.70;99.90
32977;DHT22;47687;50.842;4.450;2022-08-01T07:50:00;24.70;99.90
32977;DHT22;47687;50.842;4.450;2022-08-01T07:52:26;24.50;99.90
32977;DHT22;47687;50.842;4.450;2022-08-01T07:54:52;24.40;99.90
32977;DHT22;47687;50.842;4.450;2022-08-01T07:57:18;24.70;99.90
32977;DHT22;47687;50.842;4.450;2022-08-01T07:59:44;24.90;99.90
32977;DHT22;47687;50.842;4.450;2022-08-01T08:02:09;24.60;99.90
32977;DHT22;47687;50.842;4.450;2022-08-01T08:04:35;24.70;99.90
32977;DHT22;47687;50.842;4.450;2022-08-01T08:07:01;24.60;99.90
32977;DHT22;47687;50.842;4.450;2022-08-01T08:09:26;24.50;99.90
32977;DHT22;47687;50.842;4.450;2022-08-01T08:11:52;24.10;99.90
32977;DHT22;47687;50.842;4.450;2022-08-01T08:14:18;23.70;99.90
32977;DHT22;47687;50.842;4.450;2022-08-01T08:16:43;23.20;99.90
32977;DHT22;47687;50.842;4.450;2022-08-01T08:19:09;23.80;99.90
32977;DHT22;47687;50.842;4.450;2022-08-01T08:21:35;24.40;99.90
32977;DHT22;47687;50.842;4.450;2022-08-01T08:24:01;25.10;99.90
32977;DHT22;47687;50.842;4.450;2022-08-01T08:26:51;25.50;99.90
32977;DHT22;47687;50.842;4.450;2022-08-01T08:29:18;25.40;99.90
32977;DHT22;47687;50.842;4.450;2022-08-01T08:31:44;25.10;99.90
32977;DHT22;47687;50.842;4.450;2022-08-01T08:34:10;25.40;99.60
32977;DHT22;47687;50.842;4.450;2022-08-01T08:36:36;24.80;99.80
32977;DHT22;47687;50.842;4.450;2022-08-01T08:39:03;24.50;99.90
32977;DHT22;47687;50.842;4.450;2022-08-01T08:41:30;24.40;99.90
32977;DHT22;47687;50.842;4.450;2022-08-01T08:43:56;24.80;99.90
32977;DHT22;47687;50.842;4.450;2022-08-01T08:46:23;25.20;99.80
32977;DHT22;47687;50.842;4.450;2022-08-01T08:48:51;25.30;99.20
32977;DHT22;47687;50.842;4.450;2022-08-01T08:51:17;24.90;99.90
32977;DHT22;47687;50.842;4.450;2022-08-01T08:53:45;25.10;99.90
32977;DHT22;47687;50.842;4.450;2022-08-01T08:56:13;25.20;99.90
32977;DHT22;47687;50.842;4.450;2022-08-01T08:58:41;24.90;99.80
32977;DHT22;47687;50.842;4.450;2022-08-01T09:01:09;24.90;99.30
32977;DHT22;47687;50.842;4.450;2022-08-01T09:03:36;24.30;99.90
32977;DHT22;47687;50.842;4.450;2022-08-01T09:06:02;24.30;99.90
32977;DHT22;47687;50.842;4.450;2022-08-01T09:08:28;24.70;99.50
32977;DHT22;47687;50.842;4.450;2022-08-01T09:10:54;24.60;99.90
32977;DHT22;47687;50.842;4.450;2022-08-01T09:13:20;25.30;99.10
32977;DHT22;47687;50.842;4.450;2022-08-01T09:15:54;26.10;97.40
32977;DHT22;47687;50.842;4.450;2022-08-01T09:18:40;26.80;96.40
32977;DHT22;47687;50.842;4.450;2022-08-01T09:23:39;27.70;94.00
32977;DHT22;47687;50.842;4.450;2022-08-01T09:26:12;27.80;93.80
32977;DHT22;47687;50.842;4.450;2022-08-01T09:28:38;27.20;91.10
32977;DHT22;47687;50.842;4.450;2022-08-01T09:31:12;27.20;91.30
32977;DHT22;47687;50.842;4.450;2022-08-01T09:34:00;27.60;91.40
32977;DHT22;47687;50.842;4.450;2022-08-01T09:36:50;27.90;90.70
32977;DHT22;47687;50.842;4.450;2022-08-01T09:39:27;27.90;90.90
32977;DHT22;47687;50.842;4.450;2022-08-01T09:41:54;28.10;90.40
32977;DHT22;47687;50.842;4.450;2022-08-01T09:44:40;26.80;91.20
32977;DHT22;47687;50.842;4.450;2022-08-01T09:47:06;27.20;91.60
32977;DHT22;47687;50.842;4.450;2022-08-01T09:49:34;26.60;91.80
32977;DHT22;47687;50.842;4.450;2022-08-01T09:52:21;26.30;92.40
32977;DHT22;47687;50.842;4.450;2022-08-01T09:55:03;26.20;92.90
32977;DHT22;47687;50.842;4.450;2022-08-01T09:57:29;26.40;92.40
32977;DHT22;47687;50.842;4.450;2022-08-01T09:59:57;26.20;92.70
32977;DHT22;47687;50.842;4.450;2022-08-01T10:02:41;25.70;93.30
32977;DHT22;47687;50.842;4.450;2022-08-01T10:05:09;25.90;93.60
32977;DHT22;47687;50.842;4.450;2022-08-01T10:07:56;26.20;93.30
32977;DHT22;47687;50.842;4.450;2022-08-01T10:10:22;26.20;93.60
32977;DHT22;47687;50.842;4.450;2022-08-01T10:12:48;26.60;92.50
32977;DHT22;47687;50.842;4.450;2022-08-01T10:15:17;27.00;92.40
32977;DHT22;47687;50.842;4.450;2022-08-01T10:17:50;28.00;90.90
32977;DHT22;47687;50.842;4.450;2022-08-01T10:20:24;28.60;90.60
32977;DHT22;47687;50.842;4.450;2022-08-01T10:22:53;28.80;89.30
32977;DHT22;47687;50.842;4.450;2022-08-01T10:25:20;28.40;89.90
32977;DHT22;47687;50.842;4.450;2022-08-01T10:27:48;28.70;89.40
32977;DHT22;47687;50.842;4.450;2022-08-01T10:30:15;29.00;87.70
32977;DHT22;47687;50.842;4.450;2022-08-01T10:32:41;28.80;86.50
32977;DHT22;47687;50.842;4.450;2022-08-01T10:35:09;28.60;86.50
32977;DHT22;47687;50.842;4.450;2022-08-01T10:37:41;28.10;87.70
32977;DHT22;47687;50.842;4.450;2022-08-01T10:40:08;28.00;88.00
32977;DHT22;47687;50.842;4.450;2022-08-01T10:42:35;27.40;89.10
32977;DHT22;47687;50.842;4.450;2022-08-01T10:45:01;27.50;89.80
32977;DHT22;47687;50.842;4.450;2022-08-01T10:47:51;27.40;89.40
32977;DHT22;47687;50.842;4.450;2022-08-01T10:53:17;27.40;88.50
32977;DHT22;47687;50.842;4.450;2022-08-01T11:09:05;27.90;86.80
32977;DHT22;47687;50.842;4.450;2022-08-01T11:11:31;27.90;86.80
32977;DHT22;47687;50.842;4.450;2022-08-01T11:16:45;28.00;85.90
32977;DHT22;47687;50.842;4.450;2022-08-01T11:19:10;27.20;87.40
32977;DHT22;47687;50.842;4.450;2022-08-01T11:27:19;27.00;86.90
32977;DHT22;47687;50.842;4.450;2022-08-01T11:32:54;27.10;85.90
32977;DHT22;47687;50.842;4.450;2022-08-01T11:35:21;26.90;85.10
32977;DHT22;47687;50.842;4.450;2022-08-01T11:37:49;27.70;84.70
32977;DHT22;47687;50.842;4.450;2022-08-01T11:40:23;27.80;83.90
32977;DHT22;47687;50.842;4.450;2022-08-01T11:45:52;27.60;84.10
32977;DHT22;47687;50.842;4.450;2022-08-01T11:48:22;27.60;83.80
32977;DHT22;47687;50.842;4.450;2022-08-01T11:50:53;27.40;83.20
32977;DHT22;47687;50.842;4.450;2022-08-01T11:53:19;27.10;83.60
32977;DHT22;47687;50.842;4.450;2022-08-01T11:55:50;27.00;82.70
32977;DHT22;47687;50.842;4.450;2022-08-01T11:58:21;27.10;83.30
32977;DHT22;47687;50.842;4.450;2022-08-01T12:00:55;27.50;83.00
32977;DHT22;47687;50.842;4.450;2022-08-01T12:03:29;27.70;82.40
32977;DHT22;47687;50.842;4.450;2022-08-01T12:05:56;28.10;82.00
32977;DHT22;47687;50.842;4.450;2022-08-01T12:08:30;27.20;82.70
32977;DHT22;47687;50.842;4.450;2022-08-01T12:10:58;26.80;83.50
32977;DHT22;47687;50.842;4.450;2022-08-01T12:13:25;26.40;84.60
32977;DHT22;47687;50.842;4.450;2022-08-01T12:15:50;26.40;85.60
32977;DHT22;47687;50.842;4.450;2022-08-01T12:18:17;26.40;85.20
32977;DHT22;47687;50.842;4.450;2022-08-01T12:20:44;26.60;85.30
32977;DHT22;47687;50.842;4.450;2022-08-01T12:23:15;26.50;84.90
32977;DHT22;47687;50.842;4.450;2022-08-01T12:25:41;26.80;85.00
32977;DHT22;47687;50.842;4.450;2022-08-01T12:28:11;27.00;83.00
32977;DHT22;47687;50.842;4.450;2022-08-01T12:30:48;27.30;82.90
32977;DHT22;47687;50.842;4.450;2022-08-01T12:33:18;27.50;83.00
32977;DHT22;47687;50.842;4.450;2022-08-01T12:35:44;28.10;82.30
32977;DHT22;47687;50.842;4.450;2022-08-01T12:38:20;28.70;81.10
32977;DHT22;47687;50.842;4.450;2022-08-01T12:40:48;29.20;79.20
32977;DHT22;47687;50.842;4.450;2022-08-01T12:43:19;29.50;78.00
32977;DHT22;47687;50.842;4.450;2022-08-01T12:45:48;28.20;78.70
32977;DHT22;47687;50.842;4.450;2022-08-01T12:48:15;28.20;79.30
32977;DHT22;47687;50.842;4.450;2022-08-01T12:50:47;28.30;80.30
32977;DHT22;47687;50.842;4.450;2022-08-01T12:53:13;27.90;80.40
32977;DHT22;47687;50.842;4.450;2022-08-01T12:55:49;27.90;81.40
32977;DHT22;47687;50.842;4.450;2022-08-01T12:58:15;28.00;82.20
32977;DHT22;47687;50.842;4.450;2022-08-01T13:00:44;27.70;82.30
32977;DHT22;47687;50.842;4.450;2022-08-01T13:03:17;27.70;82.20
32977;DHT22;47687;50.842;4.450;2022-08-01T13:05:49;28.20;81.00
32977;DHT22;47687;50.842;4.450;2022-08-01T13:08:30;28.10;80.90
32977;DHT22;47687;50.842;4.450;2022-08-01T13:11:07;27.90;80.50
32977;DHT22;47687;50.842;4.450;2022-08-01T13:13:47;27.30;80.60
32977;DHT22;47687;50.842;4.450;2022-08-01T13:16:14;27.10;81.30
32977;DHT22;47687;50.842;4.450;2022-08-01T13:18:40;27.40;81.50
32977;DHT22;47687;50.842;4.450;2022-08-01T13:21:24;27.20;81.50
32977;DHT22;47687;50.842;4.450;2022-08-01T13:24:07;27.20;81.00
32977;DHT22;47687;50.842;4.450;2022-08-01T13:29:19;26.70;81.70
32977;DHT22;47687;50.842;4.450;2022-08-01T13:31:48;26.40;81.00
32977;DHT22;47687;50.842;4.450;2022-08-01T13:34:15;26.70;81.50
32977;DHT22;47687;50.842;4.450;2022-08-01T13:36:41;26.90;79.70
32977;DHT22;47687;50.842;4.450;2022-08-01T13:39:07;26.90;79.20
32977;DHT22;47687;50.842;4.450;2022-08-01T13:41:51;27.10;78.40
32977;DHT22;47687;50.842;4.450;2022-08-01T13:44:17;27.40;78.80
32977;DHT22;47687;50.842;4.450;2022-08-01T13:46:43;27.00;78.70
32977;DHT22;47687;50.842;4.450;2022-08-01T13:49:10;26.60;78.80
32977;DHT22;47687;50.842;4.450;2022-08-01T13:51:37;26.70;79.30
32977;DHT22;47687;50.842;4.450;2022-08-01T13:54:04;27.00;78.90
32977;DHT22;47687;50.842;4.450;2022-08-01T13:56:31;27.50;76.70
32977;DHT22;47687;50.842;4.450;2022-08-01T13:58:58;27.60;76.60
32977;DHT22;47687;50.842;4.450;2022-08-01T14:01:24;27.00;75.70
32977;DHT22;47687;50.842;4.450;2022-08-01T14:03:50;26.90;76.50
32977;DHT22;47687;50.842;4.450;2022-08-01T14:06:19;26.80;76.60
32977;DHT22;47687;50.842;4.450;2022-08-01T14:08:48;26.60;79.40
32977;DHT22;47687;50.842;4.450;2022-08-01T14:11:14;26.60;79.10
32977;DHT22;47687;50.842;4.450;2022-08-01T14:13:40;26.70;80.00
32977;DHT22;47687;50.842;4.450;2022-08-01T14:16:06;26.80;79.30
32977;DHT22;47687;50.842;4.450;2022-08-01T14:18:32;26.30;77.70
32977;DHT22;47687;50.842;4.450;2022-08-01T14:20:58;26.10;78.40
32977;DHT22;47687;50.842;4.450;2022-08-01T14:23:25;26.20;77.80
32977;DHT22;47687;50.842;4.450;2022-08-01T14:25:50;26.30;78.70
32977;DHT22;47687;50.842;4.450;2022-08-01T14:28:16;26.00;78.20
32977;DHT22;47687;50.842;4.450;2022-08-01T14:30:42;26.00;77.90
32977;DHT22;47687;50.842;4.450;2022-08-01T14:33:09;25.70;78.60
32977;DHT22;47687;50.842;4.450;2022-08-01T14:35:34;26.10;78.70
32977;DHT22;47687;50.842;4.450;2022-08-01T14:38:00;26.50;77.60
32977;DHT22;47687;50.842;4.450;2022-08-01T14:40:26;26.80;76.50
32977;DHT22;47687;50.842;4.450;2022-08-01T14:42:51;27.00;76.50
32977;DHT22;47687;50.842;4.450;2022-08-01T14:45:17;27.00;75.50
32977;DHT22;47687;50.842;4.450;2022-08-01T14:47:43;27.00;76.00
32977;DHT22;47687;50.842;4.450;2022-08-01T14:50:11;27.40;75.50
32977;DHT22;47687;50.842;4.450;2022-08-01T14:52:38;27.50;75.20
32977;DHT22;47687;50.842;4.450;2022-08-01T14:55:05;27.40;75.90
32977;DHT22;47687;50.842;4.450;2022-08-01T14:57:31;27.40;75.80
32977;DHT22;47687;50.842;4.450;2022-08-01T14:59:57;27.30;76.00
32977;DHT22;47687;50.842;4.450;2022-08-01T15:02:23;27.10;76.60
32977;DHT22;47687;50.842;4.450;2022-08-01T15:04:49;27.20;76.70
32977;DHT22;47687;50.842;4.450;2022-08-01T15:07:16;27.20;76.30
32977;DHT22;47687;50.842;4.450;2022-08-01T15:09:42;27.10;76.20
32977;DHT22;47687;50.842;4.450;2022-08-01T15:12:09;27.00;76.10
32977;DHT22;47687;50.842;4.450;2022-08-01T15:14:35;26.70;76.40
32977;DHT22;47687;50.842;4.450;2022-08-01T15:17:24;26.50;75.80
32977;DHT22;47687;50.842;4.450;2022-08-01T15:19:53;26.40;76.20
32977;DHT22;47687;50.842;4.450;2022-08-01T15:22:20;26.50;76.10
32977;DHT22;47687;50.842;4.450;2022-08-01T15:24:47;26.70;75.40
32977;DHT22;47687;50.842;4.450;2022-08-01T15:27:13;26.70;75.20
32977;DHT22;47687;50.842;4.450;2022-08-01T15:29:39;26.90;75.10
32977;DHT22;47687;50.842;4.450;2022-08-01T15:32:05;27.00;74.10
32977;DHT22;47687;50.842;4.450;2022-08-01T15:34:35;27.00;74.30
32977;DHT22;47687;50.842;4.450;2022-08-01T15:37:02;27.20;74.10
32977;DHT22;47687;50.842;4.450;2022-08-01T15:39:28;27.30;73.80
32977;DHT22;47687;50.842;4.450;2022-08-01T15:41:54;27.50;72.40
32977;DHT22;47687;50.842;4.450;2022-08-01T15:44:19;27.20;73.20
32977;DHT22;47687;50.842;4.450;2022-08-01T15:46:47;27.10;74.00
32977;DHT22;47687;50.842;4.450;2022-08-01T15:49:13;27.50;73.20
32977;DHT22;47687;50.842;4.450;2022-08-01T15:51:40;27.20;73.60
32977;DHT22;47687;50.842;4.450;2022-08-01T15:54:06;27.10;74.20
32977;DHT22;47687;50.842;4.450;2022-08-01T15:56:32;27.00;74.60
32977;DHT22;47687;50.842;4.450;2022-08-01T15:58:58;26.90;74.10
32977;DHT22;47687;50.842;4.450;2022-08-01T16:01:24;26.90;73.80
32977;DHT22;47687;50.842;4.450;2022-08-01T16:03:53;26.90;74.30
32977;DHT22;47687;50.842;4.450;2022-08-01T16:06:19;27.00;73.80
32977;DHT22;47687;50.842;4.450;2022-08-01T16:08:45;26.60;73.90
32977;DHT22;47687;50.842;4.450;2022-08-01T16:11:11;26.60;74.60
32977;DHT22;47687;50.842;4.450;2022-08-01T16:13:36;26.80;74.60
32977;DHT22;47687;50.842;4.450;2022-08-01T16:16:02;27.90;72.40
32977;DHT22;47687;50.842;4.450;2022-08-01T16:18:29;29.20;70.60
32977;DHT22;47687;50.842;4.450;2022-08-01T16:20:55;30.30;68.50
32977;DHT22;47687;50.842;4.450;2022-08-01T16:23:23;31.70;67.00
32977;DHT22;47687;50.842;4.450;2022-08-01T16:25:49;32.60;66.10
32977;DHT22;47687;50.842;4.450;2022-08-01T16:28:15;32.60;64.70
32977;DHT22;47687;50.842;4.450;2022-08-01T16:30:41;32.60;63.70
32977;DHT22;47687;50.842;4.450;2022-08-01T16:33:07;32.10;64.20